Cape Peony — 3FDX6 — position and weather

sailwx.info

Track history (hours):
 
Tides and Currents Weather Stations Pressure Air Temp Water Temp Dewpoint Dewpoint Depression Visibility Wind Speed Wind Dir Waves Ship Positions

Cape Peony

Last reported at 2017-Feb-09 19:31 UTC. Time now 2017-Feb-21 08:01 UTC.
Position N 02°02' E 102°09'.
Warning: this ship's position is 11 days out of date.

Length 292 m; draft 6.1 m.

Type: Cargo ship. MMSI: 373590000.

Date/timePositionNaut miles runAvg speedWind from/ knotsBaromVisibWave heightAir tempDewpointWater temp
2017-Feb-09 19:31N 02°02' E 102°09'1010.1
2017-Feb-09 18:32N 01°56' E 102°17'1010.4
2017-Feb-09 17:33N 01°52' E 102°26'1010.1
2017-Feb-09 16:31N 01°47' E 102°36'9 9.4
2017-Feb-09 15:32N 01°43' E 102°44'65 8.7
2017-Feb-09 08:05N 01°11' E 103°40'5 7.4
2017-Feb-09 07:28N 01°09' E 103°44'5 5.9
2017-Feb-09 06:32N 01°11' E 103°49'6 6.3
2017-Feb-09 05:33N 01°14' E 103°55'7 7.2
2017-Feb-09 04:32N 01°16' E 104°02'3 1.0
2017-Feb-09 01:19N 01°18' E 104°05'  
Track history (hours):
 
Tides and Currents Weather Stations Pressure Air Temp Water Temp Dewpoint Dewpoint Depression Visibility Wind Speed Wind Dir Waves Ship Positions

Cape Peony

Last reported at 2017-Feb-09 19:31 UTC. Time now 2017-Feb-21 08:01 UTC.
Position N 02°02' E 102°09'.
Warning: this ship's position is 11 days out of date.

Length 292 m; draft 6.1 m.

Type: Cargo ship. MMSI: 373590000.

Date/timePositionNaut miles runAvg speedWind from/ knotsBaromVisibWave heightAir tempDewpointWater temp
2017-Feb-09 19:31N 02°02' E 102°09'1010.1
2017-Feb-09 18:32N 01°56' E 102°17'1010.4
2017-Feb-09 17:33N 01°52' E 102°26'1010.1
2017-Feb-09 16:31N 01°47' E 102°36'9 9.4
2017-Feb-09 15:32N 01°43' E 102°44'65 8.7
2017-Feb-09 08:05N 01°11' E 103°40'5 7.4
2017-Feb-09 07:28N 01°09' E 103°44'5 5.9
2017-Feb-09 06:32N 01°11' E 103°49'6 6.3
2017-Feb-09 05:33N 01°14' E 103°55'7 7.2
2017-Feb-09 04:32N 01°16' E 104°02'3 1.0
2017-Feb-09 01:19N 01°18' E 104°05'  

Dump ship's entire track history